KAAF/AAF METAR and TAF weather

Enter ICAO airport designator
Station Type Date Time Source
KAAF METAR 2018/04/21 11:11 UTC NOAA

KAAF 211111Z AUTO 06009KT 10SM OVC015 18/16 A3016 RMK AO2 T01830161 $


Station Type Date Time Source
KAAF Decoded METAR 2018/04/21 11:11 UTC NOAA

APALACHICOLA MUNICIPAL AIRPORT, FL, United States (KAAF) 29-44N 085-01W 5M
Apr 21, 2018 - 07:11 AM EDT / 2018.04.21 1111 UTC
Wind: from the ENE (060 degrees) at 10 MPH (9 KT):0
Visibility: 10 mile(s):0
Sky conditions: overcast
Temperature: 64.9 F (18.3 C)
Dew Point: 61.0 F (16.1 C)
Relative Humidity: 86%
Pressure (altimeter): 30.16 in. Hg (1021 hPa)
ob: KAAF 211111Z AUTO 06009KT 10SM OVC015 18/16 A3016 RMK AO2 T01830161
cycle: 11

Station Type Date Time Source
KAAF TAF UTC NOAA

Error!


Example: see airport list